Main page
METAR-TAF:

METAR-TAF

Airports :

Hévíz–Balaton Airport

Hévíz, Hungary

latitude: 46-41-11N, longitude: 017-09-33E, elevation: 124 m

Current weather observation

The report was made 38 minutes ago, at 04:15 UTC
Calm wind
Temperature 1°C
Humidity 64%
Pressure 1015 hPa
Visibility 10 km or more
no clouds below 1500 m and no cumulonimbus

METAR: LHSM 160415Z 00000KT CAVOK 01/M05 Q1015

Time: 05:53 (04:53 UTC)

Forecast

The report was made 17 hours and 38 minutes ago, at 11:15 UTC
Forecast valid from 15 at 12 UTC to 15 at 21 UTC
Wind 9 kt from the West
Visibility 10 km or more
no clouds below 1500 m and no cumulonimbus
Becoming
from 15 at 15 UTC to 15 at 18 UTC
Broken clouds at a height of 4000 ft

TAF: LHSM 151115Z 1512/1521 26009KT CAVOK BECMG 1515/1518 BKN040

Weather observations and forecasts of more than 4000 airports (METAR and TAF reports).

The available stations are represented by yellow and red dots on the map.

Hover mouse over dot to see the name of the station.

Then click to see weather observations and forecasts.

To change the map : click on the green buttons with a black cross to zoom in, on the green button with a dash to zoom out, or on the green arrows for adjacent maps.


METAR-TAF: